Aérodrome :
LOGIN :

S'inscrire | Disclaimer

   EN    FR    IT 

 










Légende :    VFR   VFR Marginal   IFR   IFR Intensif   IFR Très Intensif
Visi : 
Plafond : 
>= 8 km
>= 3000ft
5 à 8 km
1000 à 3000 ft
1500m à 5 km
500 à 1000 ft
800 à 1500m
200 à 500 ft
< 800m
< 200 ft
Symboles :   Orages  Brouillard  Fortes neiges  Fortes précipitations  Vent > 20 kt
SIGMETs :   Divers  Orages  Givrage  Turbulence  Onde Orograph.  Cendres Volcan.






- Altitude de l'aérodrome : 27 ft
- Code IATA : PMI


LEPA - Palma de Mallorca

DERNIER METAR :
  • 211430Z 06004KT 9999 FEW010 BKN060 17/16 Q1018 TEMPO RA

METARs EXPIRÉS :
  • 211400Z 04004KT 330V080 9999 -RA FEW010 BKN065 17/16 Q1018 TEMPO NSW
  • 211330Z 06003KT 030V100 9999 FEW010 SCT065 18/16 Q1018 TEMPO RA
  • 211300Z VRB02KT 9999 FEW010 SCT060 17/15 Q1018 TEMPO RA
  • 211230Z 05004KT 010V080 9999 -RA FEW010 SCT050 17/15 Q1019 TEMPO NSW
  • 211200Z 08003KT 060V130 9999 FEW010 SCT050 17/15 Q1018 NOSIG
  • 211130Z VRB02KT 9000 FEW012 BKN050 17/16 Q1019 TEMPO RA

TAF TAF LEPA
Valide du 21 à 12h jusqu'au 22 à 12h UTC


211100Z 2112/2212 VRB04KT 9999 FEW015 TX20/2112Z TN14/2206Z
TEMPO 2112/2212 SHRA FEW035TCU BKN040
BECMG 2116/2118 04010KT
PROB40
TEMPO 2120/2208 VRB15G25KT 3000 TSRA SCT035CB BKN040
PROB40
TEMPO 2200/2208 05025G40KT



MET'MAP, la Météo Aéronautique d'un coup d'oeil ! - Copyright ORBIFLY Décembre 2007 - Disclaimer

ORBIFLY MET'MAP TEAM :

Programmation & Développement : Alexandra Zaïnal
Conception & Développement : Baudouin d'Aumeries
Co-Programmation & Développement : Marc-Olivier Méhu
Soutien technique & logistique : Manuel Goepfert

Contact : metmap@orbifly.com




SOURCES & CREDITS :

   NOAA